Main page
METAR-TAF:

METAR-TAF

Airports :

Kithira Island National Airport

Kythira, Greece

latitude: 36-17-21N, longitude: 023-01-24E, elevation: 321 m

Current weather observation

The report was made 1 hour and 4 minutes ago, at 07:50 UTC
Wind 12 kt from the East/Northeast
Temperature 18°C
Humidity 77%
Pressure 1021 hPa
Visibility 10 km or more
Few clouds at a height of 1800 ft
Broken clouds at a height of 2500 ft

METAR: LGKC 150750Z 06012KT 9999 FEW018 BKN025 18/14 Q1021

Time: 11:54 (08:54 UTC)

Forecast

The report was made 54 minutes ago, at 08:00 UTC
Forecast valid from 15 at 09 UTC to 15 at 18 UTC
Wind 15 kt from the East/Northeast
Visibility 10 km or more
Few clouds at a height of 1800 ft
Broken clouds at a height of 2500 ft

TAF: LGKC 150800Z 1509/1518 06015KT 9999 FEW018 BKN025

Weather observations and forecasts of more than 4000 airports (METAR and TAF reports).

The available stations are represented by yellow and red dots on the map.

Hover mouse over dot to see the name of the station.

Then click to see weather observations and forecasts.

To change the map : click on the green buttons with a black cross to zoom in, on the green button with a dash to zoom out, or on the green arrows for adjacent maps.


METAR-TAF: